sensor_id;sensor_type;location;lat;lon;timestamp;pressure;altitude;pressure_sealevel;temperature;humidity
38530;BME280;24301;54.332;48.386;2023-03-22T00:01:28;98471.66;;;3.91;76.47
38530;BME280;24301;54.332;48.386;2023-03-22T00:03:55;98462.16;;;3.93;76.59
38530;BME280;24301;54.332;48.386;2023-03-22T00:06:21;98463.03;;;3.95;76.30
38530;BME280;24301;54.332;48.386;2023-03-22T00:08:49;98455.19;;;3.91;75.79
38530;BME280;24301;54.332;48.386;2023-03-22T00:11:16;98462.97;;;3.86;76.25
38530;BME280;24301;54.332;48.386;2023-03-22T00:13:42;98459.50;;;3.85;76.10
38530;BME280;24301;54.332;48.386;2023-03-22T00:16:14;98456.03;;;3.82;76.07
38530;BME280;24301;54.332;48.386;2023-03-22T00:18:40;98467.31;;;3.85;75.87
38530;BME280;24301;54.332;48.386;2023-03-22T00:21:10;98469.91;;;3.84;76.03
38530;BME280;24301;54.332;48.386;2023-03-22T00:23:36;98462.09;;;3.81;75.46
38530;BME280;24301;54.332;48.386;2023-03-22T00:26:02;98476.81;;;3.79;75.80
38530;BME280;24301;54.332;48.386;2023-03-22T00:28:28;98481.13;;;3.78;76.52
38530;BME280;24301;54.332;48.386;2023-03-22T00:30:57;98478.56;;;3.80;76.08
38530;BME280;24301;54.332;48.386;2023-03-22T00:33:29;98485.50;;;3.84;76.02
38530;BME280;24301;54.332;48.386;2023-03-22T00:36:00;98480.31;;;3.90;76.17
38530;BME280;24301;54.332;48.386;2023-03-22T00:38:27;98481.22;;;3.95;76.14
38530;BME280;24301;54.332;48.386;2023-03-22T00:41:13;98482.97;;;4.01;75.85
38530;BME280;24301;54.332;48.386;2023-03-22T00:43:39;98486.44;;;4.01;75.86
38530;BME280;24301;54.332;48.386;2023-03-22T00:46:05;98488.16;;;4.01;75.24
38530;BME280;24301;54.332;48.386;2023-03-22T00:48:32;98495.13;;;4.03;75.11
38530;BME280;24301;54.332;48.386;2023-03-22T00:50:58;98492.53;;;4.07;75.21
38530;BME280;24301;54.332;48.386;2023-03-22T00:53:24;98485.63;;;4.07;75.35
38530;BME280;24301;54.332;48.386;2023-03-22T00:55:51;98489.97;;;4.08;75.16
38530;BME280;24301;54.332;48.386;2023-03-22T00:58:17;98483.00;;;4.09;75.18
38530;BME280;24301;54.332;48.386;2023-03-22T01:00:43;98483.88;;;4.11;75.14
38530;BME280;24301;54.332;48.386;2023-03-22T01:03:09;98466.53;;;4.10;74.87
38530;BME280;24301;54.332;48.386;2023-03-22T01:05:39;98484.75;;;4.11;74.83
38530;BME280;24301;54.332;48.386;2023-03-22T01:08:05;98490.81;;;4.12;74.96
38530;BME280;24301;54.332;48.386;2023-03-22T01:10:34;98496.91;;;4.12;74.74
38530;BME280;24301;54.332;48.386;2023-03-22T01:13:01;98486.47;;;4.11;74.60
38530;BME280;24301;54.332;48.386;2023-03-22T01:15:27;98483.88;;;4.08;74.55
38530;BME280;24301;54.332;48.386;2023-03-22T01:17:53;98483.00;;;4.02;74.42
38530;BME280;24301;54.332;48.386;2023-03-22T01:20:19;98488.19;;;4.02;74.92
38530;BME280;24301;54.332;48.386;2023-03-22T01:22:45;98486.44;;;3.98;74.75
38530;BME280;24301;54.332;48.386;2023-03-22T01:25:11;98484.69;;;3.94;74.81
38530;BME280;24301;54.332;48.386;2023-03-22T01:27:37;98480.31;;;3.87;74.72
38530;BME280;24301;54.332;48.386;2023-03-22T01:30:04;98483.78;;;3.86;74.96
38530;BME280;24301;54.332;48.386;2023-03-22T01:32:31;98488.09;;;3.87;75.24
38530;BME280;24301;54.332;48.386;2023-03-22T01:34:57;98483.78;;;3.89;75.29
38530;BME280;24301;54.332;48.386;2023-03-22T01:37:25;98481.19;;;3.89;75.18
38530;BME280;24301;54.332;48.386;2023-03-22T01:39:56;98487.25;;;3.91;74.98
38530;BME280;24301;54.332;48.386;2023-03-22T01:42:22;98489.00;;;3.94;74.95
38530;BME280;24301;54.332;48.386;2023-03-22T01:47:40;98480.31;;;3.84;74.78
38530;BME280;24301;54.332;48.386;2023-03-22T01:50:08;98483.78;;;3.86;74.70
38530;BME280;24301;54.332;48.386;2023-03-22T01:52:35;98488.13;;;3.85;74.79
38530;BME280;24301;54.332;48.386;2023-03-22T01:55:07;98488.09;;;3.79;74.87
38530;BME280;24301;54.332;48.386;2023-03-22T01:57:45;98480.25;;;3.71;74.85
38530;BME280;24301;54.332;48.386;2023-03-22T02:00:19;98484.59;;;3.72;75.14
38530;BME280;24301;54.332;48.386;2023-03-22T02:03:10;98470.72;;;3.73;74.79
38530;BME280;24301;54.332;48.386;2023-03-22T02:05:45;98480.28;;;3.81;75.03
38530;BME280;24301;54.332;48.386;2023-03-22T02:08:12;98488.09;;;3.79;74.82
38530;BME280;24301;54.332;48.386;2023-03-22T02:11:00;98479.41;;;3.76;74.73
38530;BME280;24301;54.332;48.386;2023-03-22T02:22:34;98507.13;;;3.77;74.70
38530;BME280;24301;54.332;48.386;2023-03-22T02:28:32;98501.03;;;3.73;74.35
38530;BME280;24301;54.332;48.386;2023-03-22T02:34:27;98492.38;;;3.72;74.82
38530;BME280;24301;54.332;48.386;2023-03-22T02:42:45;98492.31;;;3.60;74.78
38530;BME280;24301;54.332;48.386;2023-03-22T02:45:38;98497.50;;;3.63;74.84
38530;BME280;24301;54.332;48.386;2023-03-22T02:48:12;98501.84;;;3.64;74.81
38530;BME280;24301;54.332;48.386;2023-03-22T02:50:40;98488.91;;;3.67;74.62
38530;BME280;24301;54.332;48.386;2023-03-22T02:55:53;98493.25;;;3.73;74.81
38530;BME280;24301;54.332;48.386;2023-03-22T02:58:28;98482.81;;;3.67;74.77
38530;BME280;24301;54.332;48.386;2023-03-22T03:01:06;98487.13;;;3.66;74.69
38530;BME280;24301;54.332;48.386;2023-03-22T03:03:35;98497.53;;;3.62;74.76
38530;BME280;24301;54.332;48.386;2023-03-22T03:06:09;98494.91;;;3.60;75.27
38530;BME280;24301;54.332;48.386;2023-03-22T03:08:38;98487.13;;;3.63;75.07
38530;BME280;24301;54.332;48.386;2023-03-22T03:11:05;98487.13;;;3.63;74.83
38530;BME280;24301;54.332;48.386;2023-03-22T03:13:31;98480.19;;;3.62;74.89
38530;BME280;24301;54.332;48.386;2023-03-22T03:15:59;98491.47;;;3.64;74.76
38530;BME280;24301;54.332;48.386;2023-03-22T03:23:56;98488.91;;;3.67;74.95
38530;BME280;24301;54.332;48.386;2023-03-22T03:26:53;98500.13;;;3.65;74.98
38530;BME280;24301;54.332;48.386;2023-03-22T03:29:44;98485.44;;;3.70;75.23
38530;BME280;24301;54.332;48.386;2023-03-22T03:32:23;98497.63;;;3.79;74.79
38530;BME280;24301;54.332;48.386;2023-03-22T03:38:14;98495.06;;;3.91;74.54
38530;BME280;24301;54.332;48.386;2023-03-22T03:40:42;98499.41;;;3.94;73.84
38530;BME280;24301;54.332;48.386;2023-03-22T03:43:10;98505.53;;;4.00;74.17
38530;BME280;24301;54.332;48.386;2023-03-22T03:45:37;98502.94;;;4.07;73.95
38530;BME280;24301;54.332;48.386;2023-03-22T03:48:05;98508.22;;;4.19;73.79
38530;BME280;24301;54.332;48.386;2023-03-22T03:50:33;98514.25;;;4.15;73.20
38530;BME280;24301;54.332;48.386;2023-03-22T03:52:59;98510.81;;;4.19;73.23
38530;BME280;24301;54.332;48.386;2023-03-22T03:55:26;98503.84;;;4.16;73.35
38530;BME280;24301;54.332;48.386;2023-03-22T03:57:53;98511.69;;;4.21;73.08
38530;BME280;24301;54.332;48.386;2023-03-22T04:00:19;98508.22;;;4.22;72.78
38530;BME280;24301;54.332;48.386;2023-03-22T04:03:08;98500.41;;;4.19;73.00
38530;BME280;24301;54.332;48.386;2023-03-22T04:06:01;98516.91;;;4.24;72.94
38530;BME280;24301;54.332;48.386;2023-03-22T04:08:31;98513.47;;;4.38;72.63
38530;BME280;24301;54.332;48.386;2023-03-22T04:10:57;98513.50;;;4.44;72.50
38530;BME280;24301;54.332;48.386;2023-03-22T04:13:23;98510.09;;;4.73;72.32
38530;BME280;24301;54.332;48.386;2023-03-22T04:15:52;98508.97;;;6.40;71.77
38530;BME280;24301;54.332;48.386;2023-03-22T04:18:19;98520.69;;;8.77;67.52
38530;BME280;24301;54.332;48.386;2023-03-22T04:20:47;98510.25;;;10.25;62.11
38530;BME280;24301;54.332;48.386;2023-03-22T04:23:15;98512.19;;;11.00;58.70
38530;BME280;24301;54.332;48.386;2023-03-22T04:25:43;98509.72;;;11.64;56.11
38530;BME280;24301;54.332;48.386;2023-03-22T04:28:19;98500.22;;;12.54;53.75
38530;BME280;24301;54.332;48.386;2023-03-22T04:30:47;98511.00;;;13.58;51.30
38530;BME280;24301;54.332;48.386;2023-03-22T04:33:22;98508.31;;;14.58;48.83
38530;BME280;24301;54.332;48.386;2023-03-22T04:36:08;98502.66;;;15.77;46.08
38530;BME280;24301;54.332;48.386;2023-03-22T04:38:43;98491.63;;;17.05;43.79
38530;BME280;24301;54.332;48.386;2023-03-22T04:41:15;98501.34;;;17.94;40.91
38530;BME280;24301;54.332;48.386;2023-03-22T04:43:45;98510.88;;;18.81;39.11
38530;BME280;24301;54.332;48.386;2023-03-22T04:46:13;98514.84;;;19.22;37.20
38530;BME280;24301;54.332;48.386;2023-03-22T04:48:46;98517.31;;;19.72;36.37
38530;BME280;24301;54.332;48.386;2023-03-22T04:51:12;98518.38;;;20.15;34.96
38530;BME280;24301;54.332;48.386;2023-03-22T04:53:46;98535.66;;;20.07;34.09
38530;BME280;24301;54.332;48.386;2023-03-22T04:56:13;98539.09;;;19.95;34.28
38530;BME280;24301;54.332;48.386;2023-03-22T04:58:41;98545.25;;;19.95;33.71
38530;BME280;24301;54.332;48.386;2023-03-22T05:01:09;98556.66;;;20.14;33.22
38530;BME280;24301;54.332;48.386;2023-03-22T05:03:38;98552.66;;;20.50;32.13
38530;BME280;24301;54.332;48.386;2023-03-22T05:06:06;98562.00;;;20.57;32.04
38530;BME280;24301;54.332;48.386;2023-03-22T05:08:44;98549.44;;;21.16;31.14
38530;BME280;24301;54.332;48.386;2023-03-22T05:11:16;98555.44;;;22.15;29.45
38530;BME280;24301;54.332;48.386;2023-03-22T05:13:54;98558.13;;;23.04;28.97
38530;BME280;24301;54.332;48.386;2023-03-22T05:16:20;98548.25;;;23.66;28.20
38530;BME280;24301;54.332;48.386;2023-03-22T05:18:49;98549.16;;;24.25;26.75
38530;BME280;24301;54.332;48.386;2023-03-22T05:21:21;98560.44;;;24.64;25.91
38530;BME280;24301;54.332;48.386;2023-03-22T05:23:56;98554.19;;;24.98;25.41
38530;BME280;24301;54.332;48.386;2023-03-22T05:26:24;98559.25;;;25.24;24.67
38530;BME280;24301;54.332;48.386;2023-03-22T05:28:54;98570.59;;;26.04;23.89
38530;BME280;24301;54.332;48.386;2023-03-22T05:31:28;98573.28;;;26.47;23.32
38530;BME280;24301;54.332;48.386;2023-03-22T05:33:59;98581.63;;;26.75;23.31
38530;BME280;24301;54.332;48.386;2023-03-22T05:36:28;98577.56;;;27.21;22.43
38530;BME280;24301;54.332;48.386;2023-03-22T05:39:14;98585.16;;;27.77;21.80
38530;BME280;24301;54.332;48.386;2023-03-22T05:41:42;98580.44;;;28.38;21.23
38530;BME280;24301;54.332;48.386;2023-03-22T05:44:07;98590.00;;;28.80;20.90
38530;BME280;24301;54.332;48.386;2023-03-22T05:46:37;98586.94;;;28.93;20.34
38530;BME280;24301;54.332;48.386;2023-03-22T05:49:21;98592.75;;;28.98;20.14
38530;BME280;24301;54.332;48.386;2023-03-22T05:51:48;98587.03;;;29.29;19.89
38530;BME280;24301;54.332;48.386;2023-03-22T05:54:15;98588.31;;;29.53;19.15
38530;BME280;24301;54.332;48.386;2023-03-22T05:56:47;98586.31;;;29.55;19.16
38530;BME280;24301;54.332;48.386;2023-03-22T05:59:13;98585.41;;;29.18;19.14
38530;BME280;24301;54.332;48.386;2023-03-22T06:01:39;98570.47;;;28.76;19.28
38530;BME280;24301;54.332;48.386;2023-03-22T06:04:16;98566.97;;;28.66;19.17
38530;BME280;24301;54.332;48.386;2023-03-22T06:07:01;98563.66;;;29.10;19.48
38530;BME280;24301;54.332;48.386;2023-03-22T06:09:37;98571.94;;;29.54;18.94
38530;BME280;24301;54.332;48.386;2023-03-22T06:12:07;98563.34;;;29.41;18.45
38530;BME280;24301;54.332;48.386;2023-03-22T06:14:33;98568.63;;;29.15;18.71
38530;BME280;24301;54.332;48.386;2023-03-22T06:17:25;98570.00;;;28.63;19.24
38530;BME280;24301;54.332;48.386;2023-03-22T06:19:52;98572.09;;;28.69;19.02
38530;BME280;24301;54.332;48.386;2023-03-22T06:22:20;98568.69;;;29.05;18.80
38530;BME280;24301;54.332;48.386;2023-03-22T06:24:47;98571.78;;;29.92;18.66
38530;BME280;24301;54.332;48.386;2023-03-22T06:27:18;98564.41;;;30.47;17.94
38530;BME280;24301;54.332;48.386;2023-03-22T06:29:44;98568.94;;;31.00;17.76
38530;BME280;24301;54.332;48.386;2023-03-22T06:32:16;98579.31;;;31.72;17.02
38530;BME280;24301;54.332;48.386;2023-03-22T06:34:42;98580.19;;;32.14;16.54
38530;BME280;24301;54.332;48.386;2023-03-22T06:37:09;98580.66;;;32.43;16.19
38530;BME280;24301;54.332;48.386;2023-03-22T06:39:38;98578.81;;;32.43;16.05
38530;BME280;24301;54.332;48.386;2023-03-22T06:42:05;98570.00;;;31.83;16.60
38530;BME280;24301;54.332;48.386;2023-03-22T06:44:31;98575.59;;;31.81;16.41
38530;BME280;24301;54.332;48.386;2023-03-22T06:47:12;98566.44;;;32.07;16.59
38530;BME280;24301;54.332;48.386;2023-03-22T06:50:01;98574.06;;;32.04;16.52
38530;BME280;24301;54.332;48.386;2023-03-22T06:52:46;98561.91;;;31.23;16.56
38530;BME280;24301;54.332;48.386;2023-03-22T06:55:12;98564.81;;;29.90;17.23
38530;BME280;24301;54.332;48.386;2023-03-22T06:57:38;98561.78;;;29.20;18.16
38530;BME280;24301;54.332;48.386;2023-03-22T07:00:05;98573.97;;;29.71;17.85
38530;BME280;24301;54.332;48.386;2023-03-22T07:02:31;98571.53;;;30.22;17.54
38530;BME280;24301;54.332;48.386;2023-03-22T07:05:18;98569.50;;;30.77;17.49
38530;BME280;24301;54.332;48.386;2023-03-22T07:07:50;98572.59;;;31.25;16.32
38530;BME280;24301;54.332;48.386;2023-03-22T07:10:16;98561.00;;;31.15;16.82
38530;BME280;24301;54.332;48.386;2023-03-22T07:12:42;98558.19;;;31.33;16.93
38530;BME280;24301;54.332;48.386;2023-03-22T07:15:12;98565.25;;;31.17;16.74
38530;BME280;24301;54.332;48.386;2023-03-22T07:18:02;98575.28;;;30.82;17.18
38530;BME280;24301;54.332;48.386;2023-03-22T07:20:30;98572.16;;;31.63;16.48
38530;BME280;24301;54.332;48.386;2023-03-22T07:22:57;98575.25;;;32.09;16.45
38530;BME280;24301;54.332;48.386;2023-03-22T07:25:26;98571.41;;;31.28;16.13
38530;BME280;24301;54.332;48.386;2023-03-22T07:28:01;98569.16;;;30.53;17.19
38530;BME280;24301;54.332;48.386;2023-03-22T07:30:28;98558.34;;;30.27;17.25
38530;BME280;24301;54.332;48.386;2023-03-22T07:32:54;98558.19;;;29.84;17.74
38530;BME280;24301;54.332;48.386;2023-03-22T07:35:21;98555.78;;;29.63;17.50
38530;BME280;24301;54.332;48.386;2023-03-22T07:37:47;98557.34;;;28.91;18.46
38530;BME280;24301;54.332;48.386;2023-03-22T07:40:20;98551.94;;;28.91;18.54
38530;BME280;24301;54.332;48.386;2023-03-22T07:42:49;98557.88;;;29.05;18.22
38530;BME280;24301;54.332;48.386;2023-03-22T07:45:36;98542.72;;;29.12;18.46
38530;BME280;24301;54.332;48.386;2023-03-22T07:48:22;98556.16;;;28.28;18.65
38530;BME280;24301;54.332;48.386;2023-03-22T07:51:14;98562.97;;;28.13;19.19
38530;BME280;24301;54.332;48.386;2023-03-22T07:53:41;98568.06;;;28.35;18.91
38530;BME280;24301;54.332;48.386;2023-03-22T07:56:07;98552.81;;;27.67;18.83
38530;BME280;24301;54.332;48.386;2023-03-22T07:58:34;98568.81;;;26.88;19.86
38530;BME280;24301;54.332;48.386;2023-03-22T08:01:06;98565.47;;;26.44;19.82
38530;BME280;24301;54.332;48.386;2023-03-22T08:03:55;98566.72;;;27.02;19.57
38530;BME280;24301;54.332;48.386;2023-03-22T08:06:36;98563.16;;;27.62;19.62
38530;BME280;24301;54.332;48.386;2023-03-22T08:09:05;98564.31;;;27.69;19.48
38530;BME280;24301;54.332;48.386;2023-03-22T08:11:34;98560.63;;;27.70;19.42
38530;BME280;24301;54.332;48.386;2023-03-22T08:14:00;98558.63;;;27.52;19.72
38530;BME280;24301;54.332;48.386;2023-03-22T08:16:28;98562.78;;;26.75;20.23
38530;BME280;24301;54.332;48.386;2023-03-22T08:18:55;98555.00;;;25.21;21.38
38530;BME280;24301;54.332;48.386;2023-03-22T08:21:23;98551.53;;;22.84;23.41
38530;BME280;24301;54.332;48.386;2023-03-22T08:23:52;98549.03;;;20.65;25.88
38530;BME280;24301;54.332;48.386;2023-03-22T08:26:45;98534.66;;;18.69;28.42
38530;BME280;24301;54.332;48.386;2023-03-22T08:29:21;98531.00;;;17.14;30.64
38530;BME280;24301;54.332;48.386;2023-03-22T08:31:49;98527.78;;;16.10;32.17
38530;BME280;24301;54.332;48.386;2023-03-22T08:34:16;98530.31;;;15.49;32.84
38530;BME280;24301;54.332;48.386;2023-03-22T08:36:42;98526.09;;;15.01;33.45
38530;BME280;24301;54.332;48.386;2023-03-22T08:39:08;98515.88;;;14.68;34.13
38530;BME280;24301;54.332;48.386;2023-03-22T08:41:47;98524.19;;;14.34;34.66
38530;BME280;24301;54.332;48.386;2023-03-22T08:44:14;98524.28;;;14.07;35.33
38530;BME280;24301;54.332;48.386;2023-03-22T08:46:40;98528.25;;;13.94;36.07
38530;BME280;24301;54.332;48.386;2023-03-22T08:49:06;98523.44;;;13.82;36.30
38530;BME280;24301;54.332;48.386;2023-03-22T08:51:39;98540.16;;;13.55;36.86
38530;BME280;24301;54.332;48.386;2023-03-22T08:54:17;98537.34;;;13.33;36.46
38530;BME280;24301;54.332;48.386;2023-03-22T08:57:12;98526.34;;;13.18;36.99
38530;BME280;24301;54.332;48.386;2023-03-22T09:00:09;98536.69;;;12.98;37.56
38530;BME280;24301;54.332;48.386;2023-03-22T09:02:56;98530.28;;;12.78;38.24
38530;BME280;24301;54.332;48.386;2023-03-22T09:05:22;98542.72;;;12.73;38.88
38530;BME280;24301;54.332;48.386;2023-03-22T09:07:51;98539.72;;;12.85;39.08
38530;BME280;24301;54.332;48.386;2023-03-22T09:10:27;98533.41;;;12.91;39.14
38530;BME280;24301;54.332;48.386;2023-03-22T09:12:54;98531.69;;;12.88;39.23
38530;BME280;24301;54.332;48.386;2023-03-22T09:15:21;98536.84;;;12.63;40.07
38530;BME280;24301;54.332;48.386;2023-03-22T09:18:01;98546.44;;;12.65;40.34
38530;BME280;24301;54.332;48.386;2023-03-22T09:20:27;98540.16;;;12.70;40.95
38530;BME280;24301;54.332;48.386;2023-03-22T09:22:53;98541.97;;;12.69;41.09
38530;BME280;24301;54.332;48.386;2023-03-22T09:25:20;98540.34;;;12.63;41.13
38530;BME280;24301;54.332;48.386;2023-03-22T09:27:48;98530.91;;;12.56;41.07
38530;BME280;24301;54.332;48.386;2023-03-22T09:30:14;98543.88;;;12.64;41.40
38530;BME280;24301;54.332;48.386;2023-03-22T09:32:41;98531.19;;;12.77;41.91
38530;BME280;24301;54.332;48.386;2023-03-22T09:35:09;98536.16;;;12.86;41.67
38530;BME280;24301;54.332;48.386;2023-03-22T09:37:48;98524.31;;;13.00;41.37
38530;BME280;24301;54.332;48.386;2023-03-22T09:40:18;98530.69;;;12.92;41.18
38530;BME280;24301;54.332;48.386;2023-03-22T09:42:47;98537.28;;;12.79;40.87
38530;BME280;24301;54.332;48.386;2023-03-22T09:45:21;98542.09;;;12.64;41.12
38530;BME280;24301;54.332;48.386;2023-03-22T09:47:52;98541.25;;;12.62;41.31
38530;BME280;24301;54.332;48.386;2023-03-22T09:50:22;98541.97;;;12.69;41.13
38530;BME280;24301;54.332;48.386;2023-03-22T09:52:49;98540.47;;;12.59;40.89
38530;BME280;24301;54.332;48.386;2023-03-22T09:58:04;98552.25;;;12.47;41.51
38530;BME280;24301;54.332;48.386;2023-03-22T10:00:40;98545.63;;;12.33;41.80
38530;BME280;24301;54.332;48.386;2023-03-22T10:06:12;98551.84;;;11.96;42.62
38530;BME280;24301;54.332;48.386;2023-03-22T10:09:28;98561.53;;;11.96;42.93
38530;BME280;24301;54.332;48.386;2023-03-22T10:14:46;98555.03;;;12.11;43.33
38530;BME280;24301;54.332;48.386;2023-03-22T10:17:17;98552.91;;;12.24;42.82
38530;BME280;24301;54.332;48.386;2023-03-22T10:19:52;98558.69;;;12.38;42.71
38530;BME280;24301;54.332;48.386;2023-03-22T10:22:25;98553.81;;;12.54;42.88
38530;BME280;24301;54.332;48.386;2023-03-22T10:24:55;98559.22;;;12.49;42.97
38530;BME280;24301;54.332;48.386;2023-03-22T10:27:22;98560.91;;;12.52;43.23
38530;BME280;24301;54.332;48.386;2023-03-22T10:29:55;98563.56;;;12.52;42.97
38530;BME280;24301;54.332;48.386;2023-03-22T10:32:35;98568.63;;;12.58;43.13
38530;BME280;24301;54.332;48.386;2023-03-22T10:35:05;98558.19;;;12.55;43.58
38530;BME280;24301;54.332;48.386;2023-03-22T10:37:33;98569.78;;;12.48;44.43
38530;BME280;24301;54.332;48.386;2023-03-22T10:40:02;98565.91;;;12.30;44.60
38530;BME280;24301;54.332;48.386;2023-03-22T10:42:34;98572.66;;;12.09;45.61
38530;BME280;24301;54.332;48.386;2023-03-22T10:45:06;98584.19;;;12.03;46.08
38530;BME280;24301;54.332;48.386;2023-03-22T10:47:47;98587.47;;;12.11;46.22
38530;BME280;24301;54.332;48.386;2023-03-22T10:50:24;98598.72;;;12.18;46.24
38530;BME280;24301;54.332;48.386;2023-03-22T10:53:23;98591.00;;;12.12;46.20
38530;BME280;24301;54.332;48.386;2023-03-22T10:55:51;98597.19;;;12.11;45.58
38530;BME280;24301;54.332;48.386;2023-03-22T10:58:19;98597.09;;;12.14;45.57
38530;BME280;24301;54.332;48.386;2023-03-22T11:00:50;98593.84;;;12.04;45.62
38530;BME280;24301;54.332;48.386;2023-03-22T11:06:15;98604.63;;;11.93;45.37
38530;BME280;24301;54.332;48.386;2023-03-22T11:09:00;98603.97;;;11.83;45.62
38530;BME280;24301;54.332;48.386;2023-03-22T11:11:28;98606.03;;;11.72;45.60
38530;BME280;24301;54.332;48.386;2023-03-22T11:14:00;98603.09;;;11.49;46.27
38530;BME280;24301;54.332;48.386;2023-03-22T11:16:28;98618.16;;;11.41;46.36
38530;BME280;24301;54.332;48.386;2023-03-22T11:18:56;98605.00;;;11.41;46.96
38530;BME280;24301;54.332;48.386;2023-03-22T11:21:30;98612.22;;;11.33;47.00
38530;BME280;24301;54.332;48.386;2023-03-22T11:24:04;98620.19;;;11.30;47.40
38530;BME280;24301;54.332;48.386;2023-03-22T11:26:35;98620.03;;;11.36;47.34
38530;BME280;24301;54.332;48.386;2023-03-22T11:29:17;98629.84;;;11.29;47.62
38530;BME280;24301;54.332;48.386;2023-03-22T11:32:03;98622.84;;;11.28;48.03
38530;BME280;24301;54.332;48.386;2023-03-22T11:34:29;98613.53;;;11.15;48.12
38530;BME280;24301;54.332;48.386;2023-03-22T11:36:59;98621.59;;;11.05;48.57
38530;BME280;24301;54.332;48.386;2023-03-22T11:39:27;98626.25;;;10.92;49.39
38530;BME280;24301;54.332;48.386;2023-03-22T11:41:56;98620.44;;;10.78;49.55
38530;BME280;24301;54.332;48.386;2023-03-22T11:44:26;98633.81;;;10.67;50.23
38530;BME280;24301;54.332;48.386;2023-03-22T11:46:55;98637.50;;;10.58;50.87
38530;BME280;24301;54.332;48.386;2023-03-22T11:49:26;98630.59;;;10.53;51.30
38530;BME280;24301;54.332;48.386;2023-03-22T11:51:53;98644.69;;;10.47;51.70
38530;BME280;24301;54.332;48.386;2023-03-22T11:54:28;98645.59;;;10.46;52.30
38530;BME280;24301;54.332;48.386;2023-03-22T11:56:57;98647.59;;;10.31;52.14
38530;BME280;24301;54.332;48.386;2023-03-22T11:59:28;98641.72;;;10.17;52.13
38530;BME280;24301;54.332;48.386;2023-03-22T12:02:08;98653.31;;;10.05;52.71
38530;BME280;24301;54.332;48.386;2023-03-22T12:04:38;98656.84;;;10.04;52.77
38530;BME280;24301;54.332;48.386;2023-03-22T12:07:17;98666.38;;;10.10;53.07
38530;BME280;24301;54.332;48.386;2023-03-22T12:10:05;98671.78;;;10.00;52.97
38530;BME280;24301;54.332;48.386;2023-03-22T12:12:43;98670.13;;;9.95;53.85
38530;BME280;24301;54.332;48.386;2023-03-22T12:23:16;98675.16;;;9.54;54.85
38530;BME280;24301;54.332;48.386;2023-03-22T12:25:59;98670.16;;;9.37;55.43
38530;BME280;24301;54.332;48.386;2023-03-22T12:28:33;98680.06;;;9.16;55.86
38530;BME280;24301;54.332;48.386;2023-03-22T12:31:03;98682.78;;;9.06;55.64
38530;BME280;24301;54.332;48.386;2023-03-22T12:33:43;98689.88;;;9.00;56.82
38530;BME280;24301;54.332;48.386;2023-03-22T12:36:19;98669.91;;;8.89;56.77
38530;BME280;24301;54.332;48.386;2023-03-22T12:38:52;98683.09;;;8.82;56.90
38530;BME280;24301;54.332;48.386;2023-03-22T12:41:31;98683.16;;;8.77;56.95
38530;BME280;24301;54.332;48.386;2023-03-22T12:46:35;98692.72;;;8.81;57.38
38530;BME280;24301;54.332;48.386;2023-03-22T12:49:26;98683.97;;;8.81;57.06
38530;BME280;24301;54.332;48.386;2023-03-22T12:52:09;98701.47;;;8.79;57.28
38530;BME280;24301;54.332;48.386;2023-03-22T12:54:38;98694.44;;;8.82;56.86
38530;BME280;24301;54.332;48.386;2023-03-22T12:57:04;98689.25;;;8.79;56.98
38530;BME280;24301;54.332;48.386;2023-03-22T12:59:44;98693.66;;;8.77;57.26
38530;BME280;24301;54.332;48.386;2023-03-22T13:02:32;98701.50;;;8.77;58.22
38530;BME280;24301;54.332;48.386;2023-03-22T13:05:04;98701.59;;;8.69;57.64
38530;BME280;24301;54.332;48.386;2023-03-22T13:13:15;98708.97;;;8.27;58.94
38530;BME280;24301;54.332;48.386;2023-03-22T13:16:19;98712.50;;;8.24;59.48
38530;BME280;24301;54.332;48.386;2023-03-22T13:21:22;98720.47;;;8.10;59.13
38530;BME280;24301;54.332;48.386;2023-03-22T13:29:17;98733.69;;;7.90;59.91
38530;BME280;24301;54.332;48.386;2023-03-22T13:31:53;98730.31;;;7.79;61.00
38530;BME280;24301;54.332;48.386;2023-03-22T13:34:31;98742.56;;;7.73;61.00
38530;BME280;24301;54.332;48.386;2023-03-22T13:36:58;98744.28;;;7.74;61.23
38530;BME280;24301;54.332;48.386;2023-03-22T13:39:32;98745.97;;;7.82;61.28
38530;BME280;24301;54.332;48.386;2023-03-22T13:42:08;98747.75;;;7.80;61.45
38530;BME280;24301;54.332;48.386;2023-03-22T13:44:41;98739.03;;;7.78;61.38
38530;BME280;24301;54.332;48.386;2023-03-22T13:50:22;98757.56;;;7.46;62.76
38530;BME280;24301;54.332;48.386;2023-03-22T13:53:03;98748.91;;;7.33;63.36
38530;BME280;24301;54.332;48.386;2023-03-22T13:55:58;98763.72;;;7.35;64.38
38530;BME280;24301;54.332;48.386;2023-03-22T13:58:48;98766.31;;;7.33;63.97
38530;BME280;24301;54.332;48.386;2023-03-22T14:01:19;98759.38;;;7.26;62.56
38530;BME280;24301;54.332;48.386;2023-03-22T14:03:48;98761.19;;;7.13;63.38
38530;BME280;24301;54.332;48.386;2023-03-22T14:06:26;98766.41;;;7.07;63.72
38530;BME280;24301;54.332;48.386;2023-03-22T14:08:57;98772.56;;;7.01;63.72
38530;BME280;24301;54.332;48.386;2023-03-22T14:11:51;98771.69;;;6.94;64.74
38530;BME280;24301;54.332;48.386;2023-03-22T14:14:22;98758.69;;;6.77;63.56
38530;BME280;24301;54.332;48.386;2023-03-22T14:16:51;98765.69;;;6.59;63.74
38530;BME280;24301;54.332;48.386;2023-03-22T14:19:22;98765.69;;;6.53;64.84
38530;BME280;24301;54.332;48.386;2023-03-22T14:21:54;98773.53;;;6.52;64.48
38530;BME280;24301;54.332;48.386;2023-03-22T14:24:22;98772.69;;;6.45;64.32
38530;BME280;24301;54.332;48.386;2023-03-22T14:26:55;98787.47;;;6.47;63.99
38530;BME280;24301;54.332;48.386;2023-03-22T14:29:24;98786.59;;;6.39;64.43
38530;BME280;24301;54.332;48.386;2023-03-22T14:32:14;98790.09;;;6.30;64.72
38530;BME280;24301;54.332;48.386;2023-03-22T14:34:44;98788.34;;;6.15;64.45
38530;BME280;24301;54.332;48.386;2023-03-22T14:37:12;98795.28;;;6.12;64.74